Time;durP1;ratioP1;P1;durP2;ratioP2;P2;SDS_P1;SDS_P2;PMS_P1;PMS_P2;Temp;Humidity;BMP_temperature;BMP_pressure;BME280_temperature;BME280_humidity;BME280_pressure;Samples;Min_cycle;Max_cycle;Signal;HPM_P1;HPM_P2
2021/09/05 00:01:47;;;;;;;10.43;6.05;;;22.30;52.70;;;;;;6162598;28;80439;-62
2021/09/05 00:04:48;;;;;;;10.48;5.97;;;22.30;52.40;;;;;;6162026;28;80571;-62
2021/09/05 00:07:48;;;;;;;10.50;5.90;;;22.30;52.40;;;;;;6160821;28;81456;-62
2021/09/05 00:10:49;;;;;;;11.20;6.10;;;22.30;52.40;;;;;;6160485;28;80753;-62
2021/09/05 00:13:49;;;;;;;10.70;6.38;;;22.30;52.30;;;;;;6161210;28;80816;-63
2021/09/05 00:16:50;;;;;;;9.77;5.82;;;22.30;52.50;;;;;;6160993;28;80479;-62
2021/09/05 00:19:50;;;;;;;10.65;5.95;;;22.30;52.40;;;;;;6160800;28;81174;-62
2021/09/05 00:22:51;;;;;;;11.45;6.50;;;22.30;52.40;;;;;;6159686;28;83024;-62
2021/09/05 00:25:51;;;;;;;12.45;6.43;;;22.30;52.20;;;;;;6158175;28;83504;-62
2021/09/05 00:28:51;;;;;;;11.13;6.60;;;22.30;52.20;;;;;;6160736;28;80249;-62
2021/09/05 00:31:52;;;;;;;9.35;6.10;;;22.30;52.10;;;;;;6158019;28;83377;-62
2021/09/05 00:34:53;;;;;;;8.90;5.82;;;22.30;52.20;;;;;;6157708;28;83110;-62
2021/09/05 00:37:56;;;;;;;10.48;5.90;;;22.30;52.30;;;;;;6157841;28;83648;-62
2021/09/05 00:40:57;;;;;;;10.93;6.03;;;22.20;52.10;;;;;;6157039;28;81795;-62
2021/09/05 00:43:57;;;;;;;10.50;5.70;;;22.20;51.90;;;;;;6157472;28;80481;-62
2021/09/05 00:46:58;;;;;;;9.38;5.80;;;22.30;52.00;;;;;;6159148;28;81060;-62
2021/09/05 00:49:58;;;;;;;8.15;5.22;;;22.20;52.30;;;;;;6158417;28;80794;-62
2021/09/05 00:52:59;;;;;;;11.95;6.05;;;22.20;52.10;;;;;;6158960;28;81611;-60
2021/09/05 00:56:00;;;;;;;8.93;5.47;;;22.20;52.10;;;;;;6157242;28;82948;-61
2021/09/05 00:59:08;;;;;;;8.88;5.10;;;22.20;51.90;;;;;;6150981;28;82126;-60
2021/09/05 01:02:10;;;;;;;11.20;5.97;;;22.20;51.60;;;;;;6157375;28;83282;-61
2021/09/05 01:05:11;;;;;;;9.20;5.43;;;22.20;51.70;;;;;;6156825;28;81354;-60
2021/09/05 01:08:13;;;;;;;8.75;5.80;;;22.20;51.60;;;;;;6158188;28;81693;-60
2021/09/05 01:11:13;;;;;;;10.50;6.50;;;22.10;51.50;;;;;;6155166;28;83102;-61
2021/09/05 01:14:14;;;;;;;12.82;5.85;;;22.20;51.60;;;;;;6159302;28;80725;-61
2021/09/05 01:17:15;;;;;;;10.18;5.80;;;22.20;51.50;;;;;;6157586;28;80085;-61
2021/09/05 01:22:09;;;;;;;11.30;6.60;;;22.20;51.30;;;;;;6232453;27;75268;-60
2021/09/05 01:25:35;;;;;;;10.43;5.90;;;22.20;51.50;;;;;;6202850;28;80438;-61
2021/09/05 01:28:54;;;;;;;9.68;5.75;;;22.20;51.30;;;;;;6201264;28;80528;-61
2021/09/05 01:32:14;;;;;;;10.82;6.40;;;22.10;51.20;;;;;;6201076;28;81744;-62
2021/09/05 01:35:33;;;;;;;13.25;6.00;;;22.10;51.40;;;;;;6201260;28;84614;-62
2021/09/05 01:38:52;;;;;;;7.35;5.22;;;22.10;51.70;;;;;;6200539;28;82867;-61
2021/09/05 01:42:11;;;;;;;9.95;5.38;;;22.10;51.30;;;;;;6187676;28;80252;-61
2021/09/05 01:45:50;;;;;;;12.43;5.97;;;22.10;51.40;;;;;;6199187;28;81737;-61
2021/09/05 01:49:18;;;;;;;8.80;5.25;;;22.10;51.50;;;;;;6197245;28;82743;-61
2021/09/05 01:52:47;;;;;;;11.05;5.88;;;22.10;51.20;;;;;;6190264;28;80297;-60
2021/09/05 01:56:11;;;;;;;9.70;5.78;;;22.10;51.00;;;;;;6199340;28;81435;-60
2021/09/05 01:59:11;;;;;;;11.40;5.65;;;22.10;50.90;;;;;;6202646;28;80595;-60
2021/09/05 02:02:30;;;;;;;11.93;5.75;;;22.10;50.90;;;;;;6201676;28;84840;-61
2021/09/05 02:05:53;;;;;;;8.32;5.22;;;22.10;50.80;;;;;;6200889;28;83262;-61
2021/09/05 02:09:14;;;;;;;11.10;5.60;;;22.00;50.60;;;;;;6197389;28;81552;-61
2021/09/05 02:12:36;;;;;;;10.73;4.93;;;22.00;50.90;;;;;;6190669;28;82769;-61
2021/09/05 02:16:04;;;;;;;8.93;5.57;;;22.00;50.50;;;;;;6188485;28;83522;-60
2021/09/05 02:19:20;;;;;;;8.65;5.47;;;22.00;50.80;;;;;;6199599;28;82716;-60
2021/09/05 02:22:40;;;;;;;9.73;5.88;;;22.00;50.60;;;;;;6189880;28;81240;-61
2021/09/05 02:26:03;;;;;;;8.73;5.13;;;22.00;50.20;;;;;;6195933;28;81273;-61
2021/09/05 02:29:30;;;;;;;;;;;22.00;50.50;;;;;;6199856;28;84562;-61
2021/09/05 02:32:50;;;;;;;8.90;5.22;;;22.00;50.50;;;;;;6193927;28;81509;-62
2021/09/05 02:36:16;;;;;;;9.75;5.40;;;22.00;50.20;;;;;;6161357;28;80383;-60
2021/09/05 02:39:54;;;;;;;10.20;5.72;;;22.00;50.30;;;;;;6176918;28;83015;-61
2021/09/05 02:43:27;;;;;;;10.60;5.78;;;22.00;50.00;;;;;;6166900;28;81847;-61
2021/09/05 02:47:03;;;;;;;10.45;5.80;;;22.00;50.00;;;;;;6155669;28;80548;-61
2021/09/05 02:50:22;;;;;;;10.27;5.25;;;22.00;50.20;;;;;;6182261;28;80445;-61
2021/09/05 02:53:42;;;;;;;9.80;5.72;;;21.90;50.10;;;;;;6156339;28;84817;-61
2021/09/05 02:57:02;;;;;;;12.57;5.82;;;21.90;50.10;;;;;;6184683;28;80183;-61
2021/09/05 03:00:25;;;;;;;7.28;5.22;;;21.90;50.20;;;;;;6181620;28;80370;-59
2021/09/05 03:03:39;;;;;;;10.85;4.80;;;21.90;50.10;;;;;;6179115;28;82840;-60
2021/09/05 03:07:08;;;;;;;10.73;5.68;;;21.90;50.00;;;;;;6171085;28;81658;-61
2021/09/05 03:10:37;;;;;;;9.20;4.85;;;21.90;49.80;;;;;;6176093;28;80490;-60
2021/09/05 03:13:58;;;;;;;8.85;5.38;;;21.80;50.10;;;;;;6179389;28;81308;-60
2021/09/05 03:17:28;;;;;;;9.18;5.88;;;21.80;50.20;;;;;;6175073;28;82481;-60
2021/09/05 03:20:41;;;;;;;7.90;5.07;;;21.80;50.30;;;;;;6181680;28;87027;-61
2021/09/05 03:24:01;;;;;;;7.70;5.05;;;21.80;50.30;;;;;;6177307;28;83159;-61
2021/09/05 03:27:02;;;;;;;8.93;5.10;;;21.80;50.10;;;;;;6174110;28;82528;-61
2021/09/05 03:30:21;;;;;;;8.68;4.93;;;21.90;50.30;;;;;;6184895;28;80065;-61
2021/09/05 03:33:59;;;;;;;9.90;5.55;;;21.80;50.20;;;;;;6180164;28;80739;-61
2021/09/05 03:37:20;;;;;;;12.45;6.00;;;21.80;50.20;;;;;;6173479;28;81357;-61
2021/09/05 03:40:38;;;;;;;8.25;5.30;;;21.80;50.10;;;;;;6182403;28;82346;-61
2021/09/05 03:44:08;;;;;;;7.85;5.28;;;21.80;50.30;;;;;;6169357;28;80632;-62
2021/09/05 03:47:35;;;;;;;;;;;21.80;50.50;;;;;;6164750;28;84745;-63
2021/09/05 03:51:04;;;;;;;7.45;5.22;;;21.80;50.20;;;;;;6156922;28;81271;-62
2021/09/05 03:54:08;;;;;;;10.20;5.47;;;21.80;50.20;;;;;;6162272;28;80905;-62
2021/09/05 03:57:08;;;;;;;8.73;4.82;;;21.80;50.10;;;;;;6170110;28;83466;-63
2021/09/05 04:00:10;;;;;;;9.48;4.78;;;21.80;50.10;;;;;;6166528;28;82273;-63
2021/09/05 04:03:15;;;;;;;8.80;5.00;;;21.80;50.60;;;;;;6157675;28;80102;-63
2021/09/05 04:06:15;;;;;;;7.45;4.57;;;21.80;51.00;;;;;;6178918;28;83180;-63
2021/09/05 04:12:35;;;;;;;11.23;5.40;;;21.80;51.20;;;;;;6170296;28;80111;-63
2021/09/05 04:15:35;;;;;;;9.55;5.20;;;21.80;51.20;;;;;;6177539;28;81959;-63
2021/09/05 04:18:36;;;;;;;7.82;4.82;;;21.80;51.20;;;;;;6189968;28;80375;-63
2021/09/05 04:21:36;;;;;;;11.85;5.15;;;21.80;51.30;;;;;;6176370;28;80527;-63
2021/09/05 04:24:37;;;;;;;9.77;5.20;;;21.80;51.40;;;;;;6180940;28;80574;-61
2021/09/05 04:27:37;;;;;;;13.88;4.97;;;21.80;51.90;;;;;;6177858;28;80150;-61
2021/09/05 04:30:38;;;;;;;10.18;4.65;;;21.90;52.30;;;;;;6183106;28;80373;-60
2021/09/05 04:33:38;;;;;;;10.35;4.43;;;22.00;52.60;;;;;;6182277;28;80638;-63
2021/09/05 04:36:39;;;;;;;10.90;5.32;;;21.90;53.20;;;;;;6182478;28;80352;-63
2021/09/05 04:39:40;;;;;;;12.32;4.70;;;22.00;53.70;;;;;;6181143;28;80568;-63
2021/09/05 04:42:40;;;;;;;8.07;4.53;;;22.00;53.60;;;;;;6179019;28;80449;-63
2021/09/05 04:45:41;;;;;;;7.60;4.07;;;22.00;53.80;;;;;;6172251;28;80896;-64
2021/09/05 04:48:41;;;;;;;11.65;5.45;;;22.00;55.00;;;;;;6183114;28;81123;-63
2021/09/05 04:51:42;;;;;;;9.68;5.15;;;22.10;54.90;;;;;;6181830;28;80678;-63
2021/09/05 04:54:42;;;;;;;23.27;9.48;;;22.10;54.20;;;;;;6179822;28;81844;-62
2021/09/05 04:57:42;;;;;;;18.88;8.82;;;22.20;56.50;;;;;;6179115;28;80879;-62
2021/09/05 05:00:43;;;;;;;18.65;11.18;;;22.20;55.60;;;;;;6182261;28;80617;-62
2021/09/05 05:03:43;;;;;;;20.67;12.10;;;22.20;56.10;;;;;;6178903;28;83425;-62
2021/09/05 05:06:44;;;;;;;21.73;11.63;;;22.30;55.60;;;;;;6177828;28;85544;-62
2021/09/05 05:09:44;;;;;;;21.85;10.80;;;22.30;56.40;;;;;;6176428;28;85595;-62
2021/09/05 05:12:45;;;;;;;18.40;10.00;;;22.30;56.80;;;;;;6176419;28;83235;-62
2021/09/05 05:15:45;;;;;;;15.00;9.75;;;22.40;56.60;;;;;;6178996;28;83272;-62
2021/09/05 05:18:46;;;;;;;16.20;9.25;;;22.40;56.40;;;;;;6180663;28;83088;-62
2021/09/05 05:21:46;;;;;;;18.45;8.93;;;22.40;56.20;;;;;;6181114;28;80349;-62
2021/09/05 05:24:47;;;;;;;20.55;9.50;;;22.40;56.50;;;;;;6180714;28;82687;-62
2021/09/05 05:27:47;;;;;;;16.23;9.65;;;22.40;56.00;;;;;;6181569;28;80890;-62
2021/09/05 05:30:48;;;;;;;18.75;10.18;;;22.40;56.60;;;;;;6180674;28;80479;-63
2021/09/05 05:33:48;;;;;;;22.20;10.57;;;22.40;56.50;;;;;;6173772;28;85313;-64
2021/09/05 05:36:49;;;;;;;21.23;10.43;;;22.40;56.40;;;;;;6172297;28;83423;-62
2021/09/05 05:39:49;;;;;;;17.02;8.68;;;22.40;56.70;;;;;;6183559;28;82917;-63
2021/09/05 05:42:50;;;;;;;27.05;11.32;;;22.40;56.50;;;;;;6179217;28;83665;-62
2021/09/05 05:45:50;;;;;;;23.75;9.20;;;22.50;55.90;;;;;;6177365;28;83009;-63
2021/09/05 05:48:51;;;;;;;25.70;9.80;;;22.50;56.50;;;;;;6182060;28;82260;-65
2021/09/05 05:51:51;;;;;;;26.15;10.43;;;22.40;55.90;;;;;;6181354;28;80728;-63
2021/09/05 05:54:52;;;;;;;20.98;9.82;;;22.40;55.60;;;;;;6171384;28;83412;-62
2021/09/05 05:57:52;;;;;;;24.10;10.23;;;22.40;56.30;;;;;;6174685;28;82918;-62
2021/09/05 06:00:53;;;;;;;28.48;10.38;;;22.50;56.40;;;;;;6178848;28;83144;-62
2021/09/05 06:03:53;;;;;;;27.45;9.93;;;22.50;56.00;;;;;;6177708;28;83328;-63
2021/09/05 06:06:54;;;;;;;30.52;9.90;;;22.50;56.20;;;;;;6172230;28;82944;-63
2021/09/05 06:09:54;;;;;;;25.42;8.57;;;22.50;56.10;;;;;;6183886;28;81924;-63
2021/09/05 06:12:56;;;;;;;20.05;8.23;;;22.50;55.80;;;;;;6179244;28;81836;-64
2021/09/05 06:15:57;;;;;;;18.35;7.97;;;22.50;55.90;;;;;;6187539;28;81102;-63
2021/09/05 06:18:57;;;;;;;16.50;7.22;;;22.50;56.10;;;;;;6185876;28;80692;-61
2021/09/05 06:21:58;;;;;;;18.70;7.85;;;22.50;55.80;;;;;;6184880;28;80523;-62
2021/09/05 06:24:58;;;;;;;19.52;8.88;;;22.50;55.40;;;;;;6181367;28;81751;-61
2021/09/05 06:27:59;;;;;;;19.08;7.90;;;22.50;55.10;;;;;;6178281;28;81098;-63
2021/09/05 06:30:59;;;;;;;20.02;8.02;;;22.50;55.40;;;;;;6185488;28;80433;-63
2021/09/05 06:34:00;;;;;;;18.17;8.02;;;22.50;55.00;;;;;;6186101;28;82096;-64
2021/09/05 06:37:00;;;;;;;16.45;7.78;;;22.50;55.90;;;;;;6180846;28;81786;-66
2021/09/05 06:40:01;;;;;;;18.55;7.85;;;22.50;54.20;;;;;;6182787;28;80599;-63
2021/09/05 06:43:01;;;;;;;18.30;7.10;;;22.50;55.90;;;;;;6184837;28;80529;-62
2021/09/05 06:46:02;;;;;;;19.45;7.63;;;22.60;56.00;;;;;;6183743;28;82981;-62
2021/09/05 06:49:02;;;;;;;14.05;6.45;;;22.50;55.40;;;;;;6183964;28;80622;-62
2021/09/05 06:52:03;;;;;;;18.08;6.60;;;22.60;54.40;;;;;;6182223;28;81459;-62
2021/09/05 06:55:03;;;;;;;12.57;6.05;;;22.60;54.80;;;;;;6184379;28;83070;-62
2021/09/05 06:58:04;;;;;;;13.70;6.75;;;22.60;54.60;;;;;;6182630;28;81643;-62
2021/09/05 07:01:04;;;;;;;11.88;5.63;;;22.60;54.10;;;;;;6181792;28;80078;-62
2021/09/05 07:04:05;;;;;;;12.43;5.70;;;22.60;54.70;;;;;;6178858;28;81261;-63
2021/09/05 07:07:05;;;;;;;11.45;5.60;;;22.60;54.30;;;;;;6182628;28;80654;-62
2021/09/05 07:10:06;;;;;;;19.73;6.20;;;22.60;54.10;;;;;;6183510;28;82082;-62
2021/09/05 07:13:06;;;;;;;18.58;6.13;;;22.60;54.50;;;;;;6185503;28;81272;-61
2021/09/05 07:16:07;;;;;;;13.02;5.57;;;22.60;53.40;;;;;;6183138;28;80750;-62
2021/09/05 07:19:07;;;;;;;13.30;5.15;;;22.60;53.60;;;;;;6181285;28;81388;-61
2021/09/05 07:22:08;;;;;;;10.73;5.30;;;22.60;54.00;;;;;;6182393;28;80841;-62
2021/09/05 07:25:08;;;;;;;9.60;5.32;;;22.60;53.70;;;;;;6184319;28;80853;-62
2021/09/05 07:28:09;;;;;;;10.95;5.50;;;22.60;53.40;;;;;;6177617;28;80406;-62
2021/09/05 07:31:09;;;;;;;9.68;5.03;;;22.60;53.40;;;;;;6169541;28;80402;-62
2021/09/05 07:34:10;;;;;;;10.63;5.97;;;22.60;53.50;;;;;;6166708;28;80609;-63
2021/09/05 07:37:10;;;;;;;10.00;5.22;;;22.60;53.50;;;;;;6167586;28;80527;-63
2021/09/05 07:40:11;;;;;;;10.20;5.25;;;22.60;53.40;;;;;;6183957;28;80725;-62
2021/09/05 07:43:11;;;;;;;9.05;4.72;;;22.60;53.30;;;;;;6184396;28;80426;-62
2021/09/05 07:46:12;;;;;;;6.95;4.97;;;22.70;52.80;;;;;;6182708;28;81109;-63
2021/09/05 07:49:12;;;;;;;12.73;5.10;;;22.70;52.70;;;;;;6184597;28;80638;-63
2021/09/05 07:52:12;;;;;;;10.07;4.57;;;22.70;52.40;;;;;;6181454;28;81336;-63
2021/09/05 07:55:13;;;;;;;8.45;4.80;;;22.70;52.40;;;;;;6184702;28;80522;-62
2021/09/05 07:58:13;;;;;;;10.23;4.63;;;22.70;52.30;;;;;;6177377;28;81239;-62
2021/09/05 08:01:14;;;;;;;6.97;4.38;;;22.80;52.20;;;;;;6182806;28;80414;-63
2021/09/05 08:04:14;;;;;;;8.63;4.35;;;22.70;52.00;;;;;;6182575;28;80260;-62
2021/09/05 08:07:15;;;;;;;8.50;4.63;;;22.80;52.00;;;;;;6181477;28;80321;-62
2021/09/05 08:10:15;;;;;;;7.43;3.97;;;22.80;52.00;;;;;;6184457;28;80428;-63
2021/09/05 08:13:16;;;;;;;7.85;4.00;;;22.80;52.10;;;;;;6177767;28;81806;-63
2021/09/05 08:16:16;;;;;;;7.55;4.00;;;22.70;51.80;;;;;;6178762;28;80502;-63
2021/09/05 08:19:17;;;;;;;6.38;3.88;;;22.80;51.70;;;;;;6182323;28;81191;-63
2021/09/05 08:22:17;;;;;;;9.65;4.28;;;22.80;51.60;;;;;;6185704;28;80431;-62
2021/09/05 08:25:18;;;;;;;7.78;3.55;;;22.80;51.70;;;;;;6177954;28;81075;-63
2021/09/05 08:28:19;;;;;;;7.50;4.05;;;22.80;51.80;;;;;;6178767;28;80379;-62
2021/09/05 08:31:19;;;;;;;5.65;3.83;;;22.80;51.80;;;;;;6183598;28;80524;-64
2021/09/05 08:34:19;;;;;;;6.57;3.70;;;22.80;51.80;;;;;;6182905;28;80814;-63
2021/09/05 08:37:20;;;;;;;4.93;3.38;;;22.80;51.40;;;;;;6183398;28;80386;-63
2021/09/05 08:40:20;;;;;;;7.47;3.85;;;22.80;51.20;;;;;;6182292;28;80175;-62
2021/09/05 08:43:21;;;;;;;6.85;3.50;;;22.80;51.30;;;;;;6178072;28;81547;-63
2021/09/05 08:46:21;;;;;;;5.07;2.88;;;22.90;50.70;;;;;;6182786;28;80433;-62
2021/09/05 08:49:22;;;;;;;5.63;3.13;;;22.80;49.90;;;;;;6179435;28;80829;-62
2021/09/05 08:52:24;;;;;;;9.40;2.95;;;22.90;49.50;;;;;;6181456;28;80590;-63
2021/09/05 08:55:25;;;;;;;7.00;2.70;;;22.80;49.40;;;;;;6175137;28;81840;-65
2021/09/05 08:58:25;;;;;;;5.05;2.88;;;22.90;48.50;;;;;;6179739;28;82015;-64
2021/09/05 09:01:26;;;;;;;4.68;2.60;;;22.80;48.00;;;;;;6175793;28;83609;-64
2021/09/05 09:04:26;;;;;;;4.25;2.78;;;22.80;47.90;;;;;;6183052;28;80859;-64
2021/09/05 09:07:27;;;;;;;5.57;2.60;;;22.80;47.90;;;;;;6183497;28;80951;-62
2021/09/05 09:10:27;;;;;;;5.63;2.65;;;22.80;47.20;;;;;;6184018;28;80715;-63
2021/09/05 09:13:28;;;;;;;3.75;2.60;;;22.90;47.40;;;;;;6179341;28;81377;-63
2021/09/05 09:16:28;;;;;;;4.70;2.83;;;22.90;47.30;;;;;;6171676;28;81773;-63
2021/09/05 09:19:29;;;;;;;7.53;2.30;;;22.90;47.10;;;;;;6181271;28;80829;-64
2021/09/05 09:22:29;;;;;;;2.65;1.85;;;22.90;47.00;;;;;;6176311;28;82035;-63
2021/09/05 09:25:30;;;;;;;3.47;2.42;;;22.90;46.80;;;;;;6180469;28;80171;-62
2021/09/05 09:28:30;;;;;;;2.97;1.98;;;22.90;46.30;;;;;;6179583;28;81705;-63
2021/09/05 09:31:31;;;;;;;4.70;2.20;;;22.90;46.00;;;;;;6180669;28;80360;-63
2021/09/05 09:34:31;;;;;;;3.50;2.20;;;23.00;46.00;;;;;;6175009;28;81361;-63
2021/09/05 09:37:31;;;;;;;4.78;2.67;;;22.90;45.90;;;;;;6174472;28;81631;-64
2021/09/05 09:40:32;;;;;;;3.17;1.90;;;22.90;46.10;;;;;;6180544;28;83104;-64
2021/09/05 09:43:32;;;;;;;4.35;2.72;;;22.90;45.60;;;;;;6180837;28;80323;-64
2021/09/05 09:46:33;;;;;;;3.28;1.95;;;22.90;45.50;;;;;;6183721;28;81645;-64
2021/09/05 09:49:33;;;;;;;5.70;2.35;;;22.90;46.00;;;;;;6185350;28;80651;-64
2021/09/05 09:52:34;;;;;;;2.55;2.05;;;22.90;45.30;;;;;;6175682;28;80646;-63
2021/09/05 09:55:34;;;;;;;3.20;2.20;;;22.90;44.60;;;;;;6181579;28;80006;-64
2021/09/05 09:58:35;;;;;;;10.80;4.80;;;22.90;43.60;;;;;;6184683;28;81821;-63
2021/09/05 10:01:37;;;;;;;20.25;6.65;;;22.90;53.10;;;;;;6185198;28;80087;-63
2021/09/05 10:04:37;;;;;;;27.08;9.52;;;23.00;53.90;;;;;;6185094;28;81440;-63
2021/09/05 10:07:37;;;;;;;19.88;5.95;;;23.00;55.00;;;;;;6181610;28;80375;-62
2021/09/05 10:10:38;;;;;;;16.25;6.03;;;23.00;50.90;;;;;;6183962;28;80545;-62
2021/09/05 10:13:39;;;;;;;15.73;5.63;;;23.00;50.50;;;;;;6182458;28;80715;-62
2021/09/05 10:16:39;;;;;;;12.20;4.38;;;23.00;49.60;;;;;;6180511;28;81509;-62
2021/09/05 10:19:39;;;;;;;8.35;4.18;;;23.00;49.90;;;;;;6168972;28;80660;-62
2021/09/05 10:22:40;;;;;;;10.60;4.38;;;23.10;50.10;;;;;;6178974;28;81627;-63
2021/09/05 10:25:40;;;;;;;12.13;3.92;;;23.10;50.00;;;;;;6185240;28;80545;-62
2021/09/05 10:28:41;;;;;;;7.13;3.08;;;23.10;48.20;;;;;;6183801;28;80668;-63
2021/09/05 10:31:41;;;;;;;8.60;3.40;;;23.10;48.00;;;;;;6174243;28;81633;-62
2021/09/05 10:34:42;;;;;;;9.48;3.50;;;23.10;48.90;;;;;;6186166;28;80625;-63
2021/09/05 10:37:42;;;;;;;10.48;3.97;;;23.10;47.50;;;;;;6178897;28;80806;-62
2021/09/05 10:40:43;;;;;;;7.95;3.53;;;23.20;47.80;;;;;;6176025;28;81086;-62
2021/09/05 10:43:43;;;;;;;9.65;3.83;;;23.20;47.70;;;;;;6180598;28;84030;-62
2021/09/05 10:46:44;;;;;;;9.02;4.00;;;23.20;47.10;;;;;;6177568;28;80706;-63
2021/09/05 10:49:44;;;;;;;8.43;3.63;;;23.20;47.30;;;;;;6172525;28;80849;-63
2021/09/05 10:52:46;;;;;;;7.03;3.45;;;23.20;46.90;;;;;;6180427;28;80865;-62
2021/09/05 10:55:46;;;;;;;6.80;3.65;;;23.20;47.40;;;;;;6172639;28;80960;-63
2021/09/05 10:58:47;;;;;;;9.05;3.40;;;23.20;45.70;;;;;;6176331;28;80181;-62
2021/09/05 11:01:47;;;;;;;3.90;2.60;;;23.10;46.20;;;;;;6176947;28;81027;-64
2021/09/05 11:04:47;;;;;;;8.63;3.45;;;23.10;46.50;;;;;;6181256;28;81454;-63
2021/09/05 11:07:48;;;;;;;8.07;3.00;;;23.20;46.60;;;;;;6172023;28;82265;-63
2021/09/05 11:10:49;;;;;;;6.75;2.40;;;23.20;46.80;;;;;;6177615;28;83408;-63
2021/09/05 11:13:49;;;;;;;4.85;2.65;;;23.20;47.20;;;;;;6190232;28;80607;-62
2021/09/05 11:16:51;;;;;;;3.75;2.58;;;23.20;46.90;;;;;;6183885;28;80346;-63
2021/09/05 11:19:52;;;;;;;4.15;2.28;;;23.30;46.40;;;;;;6185572;28;81483;-63
2021/09/05 11:22:53;;;;;;;6.10;2.50;;;23.30;46.20;;;;;;6178579;28;80905;-63
2021/09/05 11:25:54;;;;;;;4.13;2.47;;;23.30;46.10;;;;;;6182835;28;81134;-62
2021/09/05 11:28:55;;;;;;;2.90;1.85;;;23.30;46.30;;;;;;6180535;28;82304;-62
2021/09/05 11:31:55;;;;;;;6.82;1.98;;;23.30;46.70;;;;;;6180852;28;80600;-64
2021/09/05 11:34:58;;;;;;;3.38;2.10;;;23.30;45.40;;;;;;6184664;28;80452;-62
2021/09/05 11:37:59;;;;;;;4.15;1.60;;;23.30;45.60;;;;;;6178649;28;80495;-63
2021/09/05 11:41:01;;;;;;;2.33;1.40;;;23.30;43.80;;;;;;6170427;28;81257;-62
2021/09/05 11:44:03;;;;;;;3.03;2.08;;;23.30;43.40;;;;;;6184970;28;80374;-64
2021/09/05 11:47:07;;;;;;;3.25;1.70;;;23.30;43.60;;;;;;6182524;28;80482;-63
2021/09/05 11:50:08;;;;;;;2.15;1.65;;;23.30;44.00;;;;;;6164248;28;81493;-64
2021/09/05 11:53:09;;;;;;;1.85;1.30;;;23.30;43.60;;;;;;6172223;28;80457;-64
2021/09/05 11:56:09;;;;;;;1.73;1.45;;;23.30;43.40;;;;;;6182016;28;80770;-62
2021/09/05 11:59:11;;;;;;;5.22;1.77;;;23.30;43.80;;;;;;6183949;28;80728;-62
2021/09/05 12:02:11;;;;;;;2.47;1.63;;;23.30;44.30;;;;;;6179474;28;80847;-62
2021/09/05 12:05:12;;;;;;;1.73;1.48;;;23.20;41.10;;;;;;6183582;28;80671;-62
2021/09/05 12:08:13;;;;;;;4.78;1.55;;;23.20;42.60;;;;;;6176666;28;81233;-62
2021/09/05 12:11:14;;;;;;;3.38;1.60;;;23.10;41.20;;;;;;6177893;28;80644;-62
2021/09/05 12:14:15;;;;;;;4.28;1.63;;;23.20;39.50;;;;;;6181754;28;81095;-62
2021/09/05 12:17:15;;;;;;;1.88;1.40;;;23.10;39.60;;;;;;6174219;28;81185;-63
2021/09/05 12:20:19;;;;;;;1.70;1.50;;;23.10;40.50;;;;;;6181586;28;80648;-62
2021/09/05 12:23:20;;;;;;;2.25;1.52;;;23.10;39.20;;;;;;6177660;28;80884;-62
2021/09/05 12:26:22;;;;;;;2.22;1.75;;;23.00;38.80;;;;;;6174211;28;81517;-63
2021/09/05 12:29:23;;;;;;;1.70;1.38;;;23.00;39.30;;;;;;6181555;28;81486;-62
2021/09/05 12:32:27;;;;;;;2.40;1.50;;;23.00;39.00;;;;;;6179542;28;80238;-63
2021/09/05 12:35:29;;;;;;;2.17;1.55;;;23.00;38.70;;;;;;6179023;28;80853;-63
2021/09/05 12:38:30;;;;;;;2.15;1.67;;;22.90;38.70;;;;;;6179880;28;82199;-62
2021/09/05 12:41:31;;;;;;;1.60;1.50;;;22.90;38.80;;;;;;6175723;28;80654;-63
2021/09/05 12:44:32;;;;;;;2.97;1.60;;;22.90;39.00;;;;;;6182127;28;81825;-62
2021/09/05 12:47:34;;;;;;;1.73;1.25;;;22.90;39.10;;;;;;6178174;28;81795;-62
2021/09/05 12:50:35;;;;;;;2.20;1.58;;;22.90;38.70;;;;;;6181551;28;81243;-63
2021/09/05 12:53:35;;;;;;;2.00;1.40;;;22.90;38.90;;;;;;6178631;28;81623;-63
2021/09/05 12:56:42;;;;;;;1.60;1.50;;;22.80;38.60;;;;;;6175870;28;80263;-63
2021/09/05 12:59:43;;;;;;;3.15;1.80;;;22.80;38.60;;;;;;6178070;28;80640;-63
2021/09/05 13:02:43;;;;;;;1.67;1.58;;;22.80;38.90;;;;;;6179809;28;80450;-64
2021/09/05 13:05:44;;;;;;;3.60;1.35;;;22.80;39.10;;;;;;6176096;28;81526;-62
2021/09/05 13:08:45;;;;;;;2.50;1.45;;;22.80;38.80;;;;;;6179937;28;81566;-65
2021/09/05 13:11:48;;;;;;;2.55;1.65;;;22.80;38.90;;;;;;6179177;28;81664;-64
2021/09/05 13:14:49;;;;;;;2.60;1.52;;;22.80;39.10;;;;;;6183558;28;80306;-64
2021/09/05 13:17:51;;;;;;;1.95;1.60;;;22.80;38.70;;;;;;6173628;28;80504;-63
2021/09/05 13:20:52;;;;;;;2.83;1.60;;;22.80;39.00;;;;;;6178250;28;80400;-63
2021/09/05 13:23:53;;;;;;;2.25;1.27;;;22.80;39.20;;;;;;6182039;28;80315;-63
2021/09/05 13:26:53;;;;;;;1.80;1.45;;;22.70;38.90;;;;;;6177540;28;80549;-64
2021/09/05 13:29:55;;;;;;;2.05;1.55;;;22.70;38.80;;;;;;6176148;28;81829;-64
2021/09/05 13:32:55;;;;;;;2.20;1.35;;;22.70;38.60;;;;;;6171714;28;80454;-63
2021/09/05 13:35:56;;;;;;;7.85;1.85;;;22.70;39.20;;;;;;6178862;28;81082;-63
2021/09/05 13:38:57;;;;;;;2.95;1.40;;;22.70;39.10;;;;;;6174875;28;80500;-64
2021/09/05 13:41:57;;;;;;;1.85;1.27;;;22.70;38.80;;;;;;6172933;28;80577;-64
2021/09/05 13:44:58;;;;;;;1.70;1.40;;;22.70;40.00;;;;;;6183666;28;81374;-64
2021/09/05 13:48:00;;;;;;;2.13;1.50;;;22.70;39.70;;;;;;6182837;28;80331;-64
2021/09/05 13:51:00;;;;;;;2.38;1.60;;;22.80;40.50;;;;;;6181526;28;80276;-63
2021/09/05 13:54:02;;;;;;;5.65;1.70;;;22.90;40.80;;;;;;6170960;28;85066;-64
2021/09/05 13:57:03;;;;;;;1.67;1.40;;;22.90;41.70;;;;;;6180155;28;80709;-65
2021/09/05 14:00:04;;;;;;;2.38;1.42;;;22.90;41.40;;;;;;6178210;28;80449;-66
2021/09/05 14:03:12;;;;;;;3.47;1.70;;;22.90;41.80;;;;;;6174169;28;80705;-65
2021/09/05 14:06:14;;;;;;;1.73;1.25;;;22.90;41.70;;;;;;6179041;28;81368;-64
2021/09/05 14:09:15;;;;;;;3.90;1.52;;;22.90;42.00;;;;;;6169237;28;80910;-66
2021/09/05 14:12:16;;;;;;;2.78;1.40;;;23.00;41.70;;;;;;6171191;28;81254;-65
2021/09/05 14:15:17;;;;;;;1.63;1.20;;;23.00;41.50;;;;;;6171553;28;80537;-65
2021/09/05 14:18:18;;;;;;;5.10;1.80;;;23.00;41.70;;;;;;6175327;28;81955;-66
2021/09/05 14:21:19;;;;;;;2.30;1.65;;;23.00;42.00;;;;;;6173750;28;80770;-65
2021/09/05 14:24:19;;;;;;;2.55;1.38;;;23.00;42.10;;;;;;6170226;28;80487;-66
2021/09/05 14:27:25;;;;;;;1.48;1.38;;;23.00;42.50;;;;;;6175628;28;81466;-65
2021/09/05 14:33:43;;;;;;;1.95;1.27;;;23.10;42.90;;;;;;6173022;28;80503;-66
2021/09/05 14:56:37;;;;;;;1.95;1.30;;;23.10;44.10;;;;;;6125729;28;80656;-66
2021/09/05 14:59:47;;;;;;;2.90;1.50;;;23.10;44.20;;;;;;6124932;28;81302;-67
2021/09/05 15:02:54;;;;;;;2.38;1.80;;;23.10;44.20;;;;;;6179661;28;81376;-65
2021/09/05 15:06:19;;;;;;;2.40;1.40;;;23.10;44.60;;;;;;6177239;28;81683;-65
2021/09/05 15:12:40;;;;;;;12.15;1.73;;;23.10;45.20;;;;;;6179488;28;80776;-65
2021/09/05 15:15:43;;;;;;;4.97;1.30;;;23.10;44.90;;;;;;6182564;28;80757;-64
2021/09/05 15:18:44;;;;;;;6.68;1.58;;;23.10;45.20;;;;;;6177943;28;82869;-64
2021/09/05 15:24:49;;;;;;;3.50;1.50;;;23.10;45.90;;;;;;6177293;28;80775;-66
2021/09/05 15:28:03;;;;;;;8.80;1.42;;;23.10;45.50;;;;;;6178032;28;80871;-66
2021/09/05 15:31:32;;;;;;;2.35;1.45;;;23.10;45.80;;;;;;6181383;28;81010;-66
2021/09/05 15:51:05;;;;;;;1.88;1.63;;;23.10;46.40;;;;;;6182528;28;81392;-66
2021/09/05 15:54:20;;;;;;;3.10;1.65;;;23.10;46.60;;;;;;6176752;28;85195;-66
2021/09/05 15:57:22;;;;;;;2.45;1.60;;;23.00;47.50;;;;;;6177354;28;81530;-66
2021/09/05 16:00:31;;;;;;;3.17;1.80;;;23.00;47.80;;;;;;6176414;28;80999;-65
2021/09/05 16:16:38;;;;;;;6.18;1.63;;;23.20;48.00;;;;;;6179056;28;80306;-67
2021/09/05 16:19:40;;;;;;;2.53;1.70;;;23.20;48.00;;;;;;6182593;28;80718;-66
2021/09/05 16:22:41;;;;;;;7.85;1.60;;;23.20;48.00;;;;;;6191358;28;80764;-65
2021/09/05 16:25:42;;;;;;;4.25;1.48;;;23.10;47.80;;;;;;6180390;28;80434;-64
2021/09/05 16:28:43;;;;;;;4.43;1.77;;;23.20;47.80;;;;;;6175003;28;82944;-65
2021/09/05 16:31:44;;;;;;;4.15;1.23;;;23.20;47.80;;;;;;6175799;28;80690;-65
2021/09/05 16:34:58;;;;;;;2.47;1.50;;;23.20;47.80;;;;;;6182984;28;81579;-65
2021/09/05 16:38:24;;;;;;;3.03;1.85;;;23.20;48.10;;;;;;6181135;28;81317;-64
2021/09/05 16:41:25;;;;;;;2.60;1.55;;;23.20;48.20;;;;;;6174339;28;81326;-64
2021/09/05 16:44:27;;;;;;;3.50;1.75;;;23.20;48.20;;;;;;6182259;28;80602;-65
2021/09/05 16:47:30;;;;;;;2.75;1.70;;;23.20;48.20;;;;;;6182367;28;80711;-64
2021/09/05 16:50:31;;;;;;;3.33;1.90;;;23.20;48.30;;;;;;6179821;28;80483;-65
2021/09/05 16:53:31;;;;;;;1.60;1.50;;;23.30;48.30;;;;;;6182380;28;81499;-64
2021/09/05 16:56:32;;;;;;;4.32;1.75;;;23.30;48.70;;;;;;6176352;28;80525;-64
2021/09/05 16:59:33;;;;;;;5.50;1.70;;;23.30;48.40;;;;;;6180986;28;80506;-64